Terminal Aerodrome Forecast
Issued by NWS Memphis, TN

Home | Current Version | Previous Version | Text Only | Print | Product List | Glossary On
Versions: 1 2 3 4 5 6 7 8 9 10 11 12 13 14 15 16 17 18 19 20 21 22 23
000
FTUS44 KMEG 181305 AAA
TAFMKL
TAF AMD
KMKL 181305Z 1813/1912 07003KT 4SM -RA BR SCT006 OVC040
      TEMPO 1813/1816 BKN006
     FM181600 VRB03KT P6SM OVC025
     FM190600 05003KT 5SM BR OVC015=

USA.gov is the U.S. government's official web portal to all federal, state and local government web resources and services.